sensor_id;sensor_type;location;lat;lon;timestamp;P1;durP1;ratioP1;P2;durP2;ratioP2
11957;SDS011;6039;52.576;13.348;2022-09-21T00:00:50;6.20;;;4.33;;
11957;SDS011;6039;52.576;13.348;2022-09-21T00:06:02;6.93;;;4.63;;
11957;SDS011;6039;52.576;13.348;2022-09-21T00:11:08;7.83;;;4.50;;
11957;SDS011;6039;52.576;13.348;2022-09-21T00:16:14;5.33;;;3.80;;
11957;SDS011;6039;52.576;13.348;2022-09-21T00:21:21;6.07;;;4.47;;
11957;SDS011;6039;52.576;13.348;2022-09-21T00:26:27;5.50;;;4.13;;
11957;SDS011;6039;52.576;13.348;2022-09-21T00:31:32;5.57;;;4.20;;
11957;SDS011;6039;52.576;13.348;2022-09-21T00:36:39;5.77;;;3.80;;
11957;SDS011;6039;52.576;13.348;2022-09-21T00:41:43;7.20;;;4.23;;
11957;SDS011;6039;52.576;13.348;2022-09-21T00:46:52;5.77;;;4.03;;
11957;SDS011;6039;52.576;13.348;2022-09-21T00:52:02;5.10;;;3.93;;
11957;SDS011;6039;52.576;13.348;2022-09-21T00:57:07;5.53;;;3.70;;
11957;SDS011;6039;52.576;13.348;2022-09-21T01:02:11;5.77;;;3.70;;
11957;SDS011;6039;52.576;13.348;2022-09-21T01:07:19;4.80;;;3.70;;
11957;SDS011;6039;52.576;13.348;2022-09-21T01:12:29;6.03;;;4.00;;
11957;SDS011;6039;52.576;13.348;2022-09-21T01:17:42;5.83;;;4.10;;
11957;SDS011;6039;52.576;13.348;2022-09-21T01:22:56;8.07;;;3.97;;
11957;SDS011;6039;52.576;13.348;2022-09-21T01:28:13;5.93;;;4.13;;
11957;SDS011;6039;52.576;13.348;2022-09-21T01:33:27;6.70;;;3.37;;
11957;SDS011;6039;52.576;13.348;2022-09-21T01:38:39;7.00;;;3.70;;
11957;SDS011;6039;52.576;13.348;2022-09-21T01:43:47;5.90;;;3.60;;
11957;SDS011;6039;52.576;13.348;2022-09-21T01:48:58;5.00;;;3.80;;
11957;SDS011;6039;52.576;13.348;2022-09-21T01:54:10;6.10;;;3.47;;
11957;SDS011;6039;52.576;13.348;2022-09-21T01:59:18;4.80;;;3.63;;
11957;SDS011;6039;52.576;13.348;2022-09-21T02:04:27;8.83;;;3.80;;
11957;SDS011;6039;52.576;13.348;2022-09-21T02:09:31;5.93;;;4.00;;
11957;SDS011;6039;52.576;13.348;2022-09-21T02:14:35;5.93;;;3.50;;
11957;SDS011;6039;52.576;13.348;2022-09-21T02:19:44;5.37;;;3.53;;
11957;SDS011;6039;52.576;13.348;2022-09-21T02:24:54;10.80;;;4.00;;
11957;SDS011;6039;52.576;13.348;2022-09-21T02:30:05;5.40;;;4.30;;
11957;SDS011;6039;52.576;13.348;2022-09-21T02:35:15;7.13;;;3.90;;
11957;SDS011;6039;52.576;13.348;2022-09-21T02:40:27;9.83;;;3.97;;
11957;SDS011;6039;52.576;13.348;2022-09-21T02:45:34;5.43;;;4.10;;
11957;SDS011;6039;52.576;13.348;2022-09-21T02:50:46;6.10;;;4.27;;
11957;SDS011;6039;52.576;13.348;2022-09-21T02:55:53;7.83;;;4.10;;
11957;SDS011;6039;52.576;13.348;2022-09-21T03:00:58;5.03;;;3.73;;
11957;SDS011;6039;52.576;13.348;2022-09-21T03:06:06;5.20;;;4.07;;
11957;SDS011;6039;52.576;13.348;2022-09-21T03:11:10;5.70;;;4.33;;
11957;SDS011;6039;52.576;13.348;2022-09-21T03:16:18;5.17;;;4.20;;
11957;SDS011;6039;52.576;13.348;2022-09-21T03:21:27;7.33;;;4.60;;
11957;SDS011;6039;52.576;13.348;2022-09-21T03:26:31;5.20;;;3.93;;
11957;SDS011;6039;52.576;13.348;2022-09-21T03:31:35;5.77;;;4.37;;
11957;SDS011;6039;52.576;13.348;2022-09-21T03:36:42;7.73;;;4.30;;
11957;SDS011;6039;52.576;13.348;2022-09-21T03:41:47;9.73;;;4.13;;
11957;SDS011;6039;52.576;13.348;2022-09-21T03:46:54;6.73;;;4.57;;
11957;SDS011;6039;52.576;13.348;2022-09-21T03:52:02;5.70;;;3.90;;
11957;SDS011;6039;52.576;13.348;2022-09-21T03:57:06;5.23;;;3.80;;
11957;SDS011;6039;52.576;13.348;2022-09-21T04:02:10;10.83;;;4.10;;
11957;SDS011;6039;52.576;13.348;2022-09-21T04:07:17;5.07;;;3.90;;
11957;SDS011;6039;52.576;13.348;2022-09-21T04:12:21;7.47;;;4.50;;
11957;SDS011;6039;52.576;13.348;2022-09-21T04:17:26;6.77;;;4.27;;
11957;SDS011;6039;52.576;13.348;2022-09-21T04:22:33;7.40;;;5.10;;
11957;SDS011;6039;52.576;13.348;2022-09-21T04:27:37;7.23;;;4.60;;
11957;SDS011;6039;52.576;13.348;2022-09-21T04:32:42;6.63;;;4.53;;
11957;SDS011;6039;52.576;13.348;2022-09-21T04:37:49;6.17;;;4.30;;
11957;SDS011;6039;52.576;13.348;2022-09-21T04:42:56;10.80;;;4.87;;
11957;SDS011;6039;52.576;13.348;2022-09-21T04:48:00;7.07;;;4.97;;
11957;SDS011;6039;52.576;13.348;2022-09-21T04:53:07;6.87;;;4.73;;
11957;SDS011;6039;52.576;13.348;2022-09-21T04:58:11;10.93;;;7.70;;
11957;SDS011;6039;52.576;13.348;2022-09-21T05:03:16;8.23;;;5.30;;
11957;SDS011;6039;52.576;13.348;2022-09-21T05:08:23;7.60;;;4.83;;
11957;SDS011;6039;52.576;13.348;2022-09-21T05:13:40;8.43;;;4.83;;
11957;SDS011;6039;52.576;13.348;2022-09-21T05:18:45;9.47;;;5.40;;
11957;SDS011;6039;52.576;13.348;2022-09-21T05:23:53;10.03;;;4.77;;
11957;SDS011;6039;52.576;13.348;2022-09-21T05:28:57;10.30;;;4.73;;
11957;SDS011;6039;52.576;13.348;2022-09-21T05:34:03;6.00;;;4.13;;
11957;SDS011;6039;52.576;13.348;2022-09-21T05:39:13;11.17;;;5.23;;
11957;SDS011;6039;52.576;13.348;2022-09-21T05:44:17;13.03;;;5.50;;
11957;SDS011;6039;52.576;13.348;2022-09-21T05:49:25;7.50;;;4.53;;
11957;SDS011;6039;52.576;13.348;2022-09-21T05:54:41;8.00;;;4.50;;
11957;SDS011;6039;52.576;13.348;2022-09-21T05:59:56;6.00;;;4.23;;
11957;SDS011;6039;52.576;13.348;2022-09-21T06:05:08;6.70;;;4.30;;
11957;SDS011;6039;52.576;13.348;2022-09-21T06:10:16;46.20;;;8.87;;
11957;SDS011;6039;52.576;13.348;2022-09-21T06:15:20;30.63;;;7.13;;
11957;SDS011;6039;52.576;13.348;2022-09-21T06:20:25;14.03;;;5.37;;
11957;SDS011;6039;52.576;13.348;2022-09-21T06:25:31;6.33;;;4.53;;
11957;SDS011;6039;52.576;13.348;2022-09-21T06:30:36;7.03;;;4.30;;
11957;SDS011;6039;52.576;13.348;2022-09-21T06:35:42;17.40;;;5.53;;
11957;SDS011;6039;52.576;13.348;2022-09-21T06:40:49;13.17;;;5.40;;
11957;SDS011;6039;52.576;13.348;2022-09-21T06:45:55;14.30;;;6.50;;
11957;SDS011;6039;52.576;13.348;2022-09-21T06:51:00;11.20;;;7.03;;
11957;SDS011;6039;52.576;13.348;2022-09-21T06:56:08;10.97;;;6.83;;
11957;SDS011;6039;52.576;13.348;2022-09-21T07:01:13;13.73;;;7.43;;
11957;SDS011;6039;52.576;13.348;2022-09-21T07:06:17;26.43;;;7.47;;
11957;SDS011;6039;52.576;13.348;2022-09-21T07:11:24;12.10;;;7.27;;
11957;SDS011;6039;52.576;13.348;2022-09-21T07:16:29;30.53;;;8.83;;
11957;SDS011;6039;52.576;13.348;2022-09-21T07:21:34;20.57;;;8.33;;
11957;SDS011;6039;52.576;13.348;2022-09-21T07:26:40;17.20;;;7.03;;
11957;SDS011;6039;52.576;13.348;2022-09-21T07:31:45;13.23;;;6.13;;
11957;SDS011;6039;52.576;13.348;2022-09-21T07:36:49;11.90;;;5.47;;
11957;SDS011;6039;52.576;13.348;2022-09-21T07:41:56;11.43;;;5.20;;
11957;SDS011;6039;52.576;13.348;2022-09-21T07:47:00;8.00;;;5.10;;
11957;SDS011;6039;52.576;13.348;2022-09-21T07:52:05;11.27;;;4.97;;
11957;SDS011;6039;52.576;13.348;2022-09-21T07:57:12;9.07;;;5.33;;
11957;SDS011;6039;52.576;13.348;2022-09-21T08:02:29;10.33;;;5.20;;
11957;SDS011;6039;52.576;13.348;2022-09-21T08:07:34;6.87;;;4.83;;
11957;SDS011;6039;52.576;13.348;2022-09-21T08:12:40;11.43;;;5.20;;
11957;SDS011;6039;52.576;13.348;2022-09-21T08:17:45;7.07;;;4.10;;
11957;SDS011;6039;52.576;13.348;2022-09-21T08:22:51;6.63;;;4.70;;
11957;SDS011;6039;52.576;13.348;2022-09-21T08:28:00;7.60;;;4.47;;
11957;SDS011;6039;52.576;13.348;2022-09-21T08:33:04;7.47;;;4.27;;
11957;SDS011;6039;52.576;13.348;2022-09-21T08:38:08;8.53;;;4.30;;
11957;SDS011;6039;52.576;13.348;2022-09-21T08:43:15;6.00;;;3.97;;
11957;SDS011;6039;52.576;13.348;2022-09-21T08:48:24;5.90;;;4.07;;
11957;SDS011;6039;52.576;13.348;2022-09-21T08:53:31;8.20;;;3.80;;
11957;SDS011;6039;52.576;13.348;2022-09-21T08:58:40;6.77;;;3.80;;
11957;SDS011;6039;52.576;13.348;2022-09-21T09:03:48;10.87;;;3.90;;
11957;SDS011;6039;52.576;13.348;2022-09-21T09:09:03;4.70;;;3.50;;
11957;SDS011;6039;52.576;13.348;2022-09-21T09:14:46;20.17;;;10.13;;
11957;SDS011;6039;52.576;13.348;2022-09-21T09:19:59;10.00;;;4.17;;
11957;SDS011;6039;52.576;13.348;2022-09-21T09:25:12;47.30;;;7.47;;
11957;SDS011;6039;52.576;13.348;2022-09-21T09:30:22;18.07;;;4.70;;
11957;SDS011;6039;52.576;13.348;2022-09-21T09:35:29;25.97;;;5.57;;
11957;SDS011;6039;52.576;13.348;2022-09-21T09:46:05;6.37;;;3.17;;
11957;SDS011;6039;52.576;13.348;2022-09-21T09:51:11;10.30;;;2.77;;
11957;SDS011;6039;52.576;13.348;2022-09-21T09:56:17;5.80;;;4.00;;
11957;SDS011;6039;52.576;13.348;2022-09-21T10:06:45;8.57;;;2.70;;
11957;SDS011;6039;52.576;13.348;2022-09-21T10:11:50;2.33;;;1.50;;
11957;SDS011;6039;52.576;13.348;2022-09-21T10:16:58;2.33;;;1.50;;
11957;SDS011;6039;52.576;13.348;2022-09-21T10:22:06;5.27;;;1.60;;
11957;SDS011;6039;52.576;13.348;2022-09-21T10:27:17;4.73;;;2.13;;
11957;SDS011;6039;52.576;13.348;2022-09-21T10:32:27;4.80;;;1.37;;
11957;SDS011;6039;52.576;13.348;2022-09-21T10:37:32;2.60;;;1.50;;
11957;SDS011;6039;52.576;13.348;2022-09-21T10:42:41;2.00;;;1.60;;
11957;SDS011;6039;52.576;13.348;2022-09-21T10:47:48;5.43;;;2.30;;
11957;SDS011;6039;52.576;13.348;2022-09-21T10:52:56;1.20;;;1.10;;
11957;SDS011;6039;52.576;13.348;2022-09-21T10:58:04;41.23;;;5.57;;
11957;SDS011;6039;52.576;13.348;2022-09-21T11:03:35;9.00;;;2.27;;
11957;SDS011;6039;52.576;13.348;2022-09-21T11:08:45;9.10;;;2.10;;
11957;SDS011;6039;52.576;13.348;2022-09-21T11:13:53;16.40;;;2.73;;
11957;SDS011;6039;52.576;13.348;2022-09-21T11:19:05;5.50;;;2.00;;
11957;SDS011;6039;52.576;13.348;2022-09-21T11:24:31;4.40;;;1.53;;
11957;SDS011;6039;52.576;13.348;2022-09-21T11:29:45;2.00;;;1.60;;
11957;SDS011;6039;52.576;13.348;2022-09-21T11:35:15;2.57;;;1.67;;
11957;SDS011;6039;52.576;13.348;2022-09-21T11:40:49;1.73;;;1.10;;
11957;SDS011;6039;52.576;13.348;2022-09-21T11:46:06;3.20;;;1.30;;
11957;SDS011;6039;52.576;13.348;2022-09-21T11:51:21;2.40;;;1.20;;
11957;SDS011;6039;52.576;13.348;2022-09-21T11:56:37;2.60;;;1.20;;
11957;SDS011;6039;52.576;13.348;2022-09-21T12:01:54;5.90;;;2.10;;
11957;SDS011;6039;52.576;13.348;2022-09-21T12:07:15;5.90;;;1.83;;
11957;SDS011;6039;52.576;13.348;2022-09-21T12:12:27;5.10;;;2.80;;
11957;SDS011;6039;52.576;13.348;2022-09-21T12:17:38;1.67;;;1.20;;
11957;SDS011;6039;52.576;13.348;2022-09-21T12:22:55;3.60;;;2.60;;
11957;SDS011;6039;52.576;13.348;2022-09-21T12:28:04;5.63;;;1.97;;
11957;SDS011;6039;52.576;13.348;2022-09-21T12:33:34;3.97;;;1.53;;
11957;SDS011;6039;52.576;13.348;2022-09-21T12:38:46;3.63;;;1.70;;
11957;SDS011;6039;52.576;13.348;2022-09-21T12:43:56;3.60;;;1.43;;
11957;SDS011;6039;52.576;13.348;2022-09-21T12:49:08;4.17;;;1.50;;
11957;SDS011;6039;52.576;13.348;2022-09-21T12:54:23;5.83;;;1.80;;
11957;SDS011;6039;52.576;13.348;2022-09-21T12:59:39;3.10;;;1.83;;
11957;SDS011;6039;52.576;13.348;2022-09-21T13:04:54;9.13;;;1.90;;
11957;SDS011;6039;52.576;13.348;2022-09-21T13:10:11;2.17;;;1.60;;
11957;SDS011;6039;52.576;13.348;2022-09-21T13:15:21;35.07;;;4.63;;
11957;SDS011;6039;52.576;13.348;2022-09-21T13:20:31;7.17;;;2.07;;
11957;SDS011;6039;52.576;13.348;2022-09-21T13:25:39;2.73;;;1.63;;
11957;SDS011;6039;52.576;13.348;2022-09-21T13:30:44;12.93;;;2.63;;
11957;SDS011;6039;52.576;13.348;2022-09-21T13:35:51;13.43;;;2.63;;
11957;SDS011;6039;52.576;13.348;2022-09-21T13:41:19;6.23;;;1.90;;
11957;SDS011;6039;52.576;13.348;2022-09-21T13:51:55;3.27;;;1.17;;
11957;SDS011;6039;52.576;13.348;2022-09-21T13:57:06;3.77;;;1.40;;
11957;SDS011;6039;52.576;13.348;2022-09-21T14:02:21;6.83;;;1.40;;
11957;SDS011;6039;52.576;13.348;2022-09-21T14:07:34;2.67;;;1.10;;
11957;SDS011;6039;52.576;13.348;2022-09-21T14:12:42;2.80;;;1.30;;
11957;SDS011;6039;52.576;13.348;2022-09-21T14:18:07;23.47;;;2.57;;
11957;SDS011;6039;52.576;13.348;2022-09-21T14:23:26;4.07;;;1.27;;
11957;SDS011;6039;52.576;13.348;2022-09-21T14:28:34;2.43;;;1.40;;
11957;SDS011;6039;52.576;13.348;2022-09-21T14:33:43;6.23;;;3.00;;
11957;SDS011;6039;52.576;13.348;2022-09-21T14:38:50;13.50;;;2.67;;
11957;SDS011;6039;52.576;13.348;2022-09-21T14:44:00;5.47;;;1.40;;
11957;SDS011;6039;52.576;13.348;2022-09-21T14:49:07;0.93;;;0.90;;
11957;SDS011;6039;52.576;13.348;2022-09-21T14:54:22;3.30;;;1.70;;
11957;SDS011;6039;52.576;13.348;2022-09-21T14:59:44;1.20;;;0.97;;
11957;SDS011;6039;52.576;13.348;2022-09-21T15:05:18;5.63;;;1.60;;
11957;SDS011;6039;52.576;13.348;2022-09-21T15:10:29;1.53;;;0.80;;
11957;SDS011;6039;52.576;13.348;2022-09-21T15:15:55;1.10;;;1.00;;
11957;SDS011;6039;52.576;13.348;2022-09-21T15:21:19;1.97;;;0.80;;
11957;SDS011;6039;52.576;13.348;2022-09-21T15:26:27;1.47;;;0.90;;
11957;SDS011;6039;52.576;13.348;2022-09-21T15:31:36;4.93;;;1.50;;
11957;SDS011;6039;52.576;13.348;2022-09-21T15:36:42;2.17;;;0.80;;
11957;SDS011;6039;52.576;13.348;2022-09-21T15:41:49;1.20;;;0.90;;
11957;SDS011;6039;52.576;13.348;2022-09-21T15:47:13;1.40;;;0.93;;
11957;SDS011;6039;52.576;13.348;2022-09-21T15:52:21;1.13;;;1.00;;
11957;SDS011;6039;52.576;13.348;2022-09-21T15:57:31;2.47;;;1.00;;
11957;SDS011;6039;52.576;13.348;2022-09-21T16:02:53;1.10;;;1.00;;
11957;SDS011;6039;52.576;13.348;2022-09-21T16:08:18;1.63;;;0.83;;
11957;SDS011;6039;52.576;13.348;2022-09-21T16:13:30;1.00;;;0.87;;
11957;SDS011;6039;52.576;13.348;2022-09-21T16:18:50;6.00;;;2.00;;
11957;SDS011;6039;52.576;13.348;2022-09-21T16:23:55;2.30;;;1.30;;
11957;SDS011;6039;52.576;13.348;2022-09-21T16:34:33;3.20;;;1.23;;
11957;SDS011;6039;52.576;13.348;2022-09-21T16:39:38;2.37;;;1.20;;
11957;SDS011;6039;52.576;13.348;2022-09-21T16:44:44;3.23;;;2.00;;
11957;SDS011;6039;52.576;13.348;2022-09-21T16:49:51;1.73;;;1.23;;
11957;SDS011;6039;52.576;13.348;2022-09-21T16:54:59;3.43;;;1.23;;
11957;SDS011;6039;52.576;13.348;2022-09-21T17:00:05;3.87;;;1.27;;
11957;SDS011;6039;52.576;13.348;2022-09-21T17:05:18;3.80;;;1.30;;
11957;SDS011;6039;52.576;13.348;2022-09-21T17:10:22;4.90;;;2.50;;
11957;SDS011;6039;52.576;13.348;2022-09-21T17:15:43;4.50;;;1.73;;
11957;SDS011;6039;52.576;13.348;2022-09-21T17:20:52;3.33;;;2.00;;
11957;SDS011;6039;52.576;13.348;2022-09-21T17:25:56;4.33;;;2.40;;
11957;SDS011;6039;52.576;13.348;2022-09-21T17:31:02;5.20;;;2.33;;
11957;SDS011;6039;52.576;13.348;2022-09-21T17:36:12;4.00;;;2.57;;
11957;SDS011;6039;52.576;13.348;2022-09-21T17:41:20;6.40;;;2.43;;
11957;SDS011;6039;52.576;13.348;2022-09-21T17:46:29;6.07;;;3.17;;
11957;SDS011;6039;52.576;13.348;2022-09-21T17:51:45;7.47;;;4.00;;
11957;SDS011;6039;52.576;13.348;2022-09-21T17:57:05;5.63;;;3.03;;
11957;SDS011;6039;52.576;13.348;2022-09-21T18:02:16;5.17;;;2.70;;
11957;SDS011;6039;52.576;13.348;2022-09-21T18:07:29;6.03;;;3.17;;
11957;SDS011;6039;52.576;13.348;2022-09-21T18:12:38;5.33;;;3.20;;
11957;SDS011;6039;52.576;13.348;2022-09-21T18:18:05;6.00;;;3.10;;
11957;SDS011;6039;52.576;13.348;2022-09-21T18:23:21;5.80;;;2.93;;
11957;SDS011;6039;52.576;13.348;2022-09-21T18:28:36;6.80;;;3.07;;
11957;SDS011;6039;52.576;13.348;2022-09-21T18:33:47;9.87;;;4.40;;
11957;SDS011;6039;52.576;13.348;2022-09-21T18:39:04;5.57;;;3.20;;
11957;SDS011;6039;52.576;13.348;2022-09-21T18:44:22;6.47;;;3.20;;
11957;SDS011;6039;52.576;13.348;2022-09-21T18:49:38;6.10;;;3.10;;
11957;SDS011;6039;52.576;13.348;2022-09-21T18:54:52;5.03;;;3.30;;
11957;SDS011;6039;52.576;13.348;2022-09-21T18:59:57;16.37;;;9.93;;
11957;SDS011;6039;52.576;13.348;2022-09-21T19:05:02;7.43;;;3.80;;
11957;SDS011;6039;52.576;13.348;2022-09-21T19:10:13;8.63;;;4.57;;
11957;SDS011;6039;52.576;13.348;2022-09-21T19:15:23;6.63;;;4.23;;
11957;SDS011;6039;52.576;13.348;2022-09-21T19:20:35;9.07;;;5.03;;
11957;SDS011;6039;52.576;13.348;2022-09-21T19:25:49;16.07;;;5.20;;
11957;SDS011;6039;52.576;13.348;2022-09-21T19:30:57;7.83;;;4.90;;
11957;SDS011;6039;52.576;13.348;2022-09-21T19:36:04;8.10;;;5.50;;
11957;SDS011;6039;52.576;13.348;2022-09-21T19:41:22;6.20;;;4.90;;
11957;SDS011;6039;52.576;13.348;2022-09-21T19:46:39;6.07;;;4.57;;
11957;SDS011;6039;52.576;13.348;2022-09-21T19:51:49;10.60;;;5.83;;
11957;SDS011;6039;52.576;13.348;2022-09-21T19:56:58;8.70;;;6.47;;
11957;SDS011;6039;52.576;13.348;2022-09-21T20:02:21;7.60;;;6.20;;
11957;SDS011;6039;52.576;13.348;2022-09-21T20:07:31;16.73;;;6.10;;
11957;SDS011;6039;52.576;13.348;2022-09-21T20:12:46;10.53;;;6.07;;
11957;SDS011;6039;52.576;13.348;2022-09-21T20:18:01;9.30;;;6.27;;
11957;SDS011;6039;52.576;13.348;2022-09-21T20:23:12;8.60;;;5.73;;
11957;SDS011;6039;52.576;13.348;2022-09-21T20:28:20;7.77;;;5.80;;
11957;SDS011;6039;52.576;13.348;2022-09-21T20:33:28;8.20;;;5.50;;
11957;SDS011;6039;52.576;13.348;2022-09-21T20:38:33;8.60;;;5.93;;
11957;SDS011;6039;52.576;13.348;2022-09-21T20:43:44;7.90;;;5.67;;
11957;SDS011;6039;52.576;13.348;2022-09-21T20:48:49;9.53;;;5.70;;
11957;SDS011;6039;52.576;13.348;2022-09-21T20:54:03;7.53;;;5.73;;
11957;SDS011;6039;52.576;13.348;2022-09-21T20:59:10;9.53;;;5.93;;
11957;SDS011;6039;52.576;13.348;2022-09-21T21:04:18;7.43;;;5.50;;
11957;SDS011;6039;52.576;13.348;2022-09-21T21:09:25;10.13;;;5.90;;
11957;SDS011;6039;52.576;13.348;2022-09-21T21:14:38;10.40;;;5.90;;
11957;SDS011;6039;52.576;13.348;2022-09-21T21:19:47;7.53;;;5.37;;
11957;SDS011;6039;52.576;13.348;2022-09-21T21:25:08;7.53;;;5.37;;
11957;SDS011;6039;52.576;13.348;2022-09-21T21:30:15;7.23;;;5.40;;
11957;SDS011;6039;52.576;13.348;2022-09-21T21:35:19;8.23;;;5.17;;
11957;SDS011;6039;52.576;13.348;2022-09-21T21:40:29;7.70;;;5.50;;
11957;SDS011;6039;52.576;13.348;2022-09-21T21:45:52;7.27;;;5.47;;
11957;SDS011;6039;52.576;13.348;2022-09-21T21:51:00;8.87;;;4.97;;
11957;SDS011;6039;52.576;13.348;2022-09-21T21:56:07;12.10;;;5.50;;
11957;SDS011;6039;52.576;13.348;2022-09-21T22:01:16;8.10;;;4.73;;
11957;SDS011;6039;52.576;13.348;2022-09-21T22:06:21;8.73;;;4.97;;
11957;SDS011;6039;52.576;13.348;2022-09-21T22:11:26;7.93;;;4.50;;
11957;SDS011;6039;52.576;13.348;2022-09-21T22:16:34;8.13;;;5.07;;
11957;SDS011;6039;52.576;13.348;2022-09-21T22:21:40;11.73;;;5.63;;
11957;SDS011;6039;52.576;13.348;2022-09-21T22:26:46;5.23;;;4.43;;
11957;SDS011;6039;52.576;13.348;2022-09-21T22:31:53;9.70;;;4.50;;
11957;SDS011;6039;52.576;13.348;2022-09-21T22:36:57;4.87;;;3.80;;
11957;SDS011;6039;52.576;13.348;2022-09-21T22:42:02;5.63;;;4.07;;
11957;SDS011;6039;52.576;13.348;2022-09-21T22:47:09;4.77;;;3.80;;
11957;SDS011;6039;52.576;13.348;2022-09-21T22:52:13;5.37;;;3.13;;
11957;SDS011;6039;52.576;13.348;2022-09-21T22:57:17;7.80;;;3.80;;
11957;SDS011;6039;52.576;13.348;2022-09-21T23:02:26;4.23;;;3.10;;
11957;SDS011;6039;52.576;13.348;2022-09-21T23:07:30;3.40;;;2.87;;
11957;SDS011;6039;52.576;13.348;2022-09-21T23:12:35;6.83;;;3.20;;
11957;SDS011;6039;52.576;13.348;2022-09-21T23:17:42;4.40;;;3.03;;
11957;SDS011;6039;52.576;13.348;2022-09-21T23:22:46;8.60;;;3.13;;
11957;SDS011;6039;52.576;13.348;2022-09-21T23:27:51;5.53;;;2.90;;
11957;SDS011;6039;52.576;13.348;2022-09-21T23:32:59;3.77;;;2.53;;
11957;SDS011;6039;52.576;13.348;2022-09-21T23:38:03;4.47;;;2.57;;
11957;SDS011;6039;52.576;13.348;2022-09-21T23:43:07;5.80;;;3.07;;
11957;SDS011;6039;52.576;13.348;2022-09-21T23:48:14;5.67;;;2.70;;
11957;SDS011;6039;52.576;13.348;2022-09-21T23:53:18;4.87;;;2.63;;
11957;SDS011;6039;52.576;13.348;2022-09-21T23:58:23;3.23;;;2.50;;
